Time;durP1;ratioP1;P1;durP2;ratioP2;P2;SDS_P1;SDS_P2;PMS_P1;PMS_P2;Temp;Humidity;BMP_temperature;BMP_pressure;BME280_temperature;BME280_humidity;BME280_pressure;Samples;Min_cycle;Max_cycle;Signal;HPM_P1;HPM_P2
2022/05/24 00:01:19;;;;;;;13.48;6.63;;;;;;;;;;5074566;28;20536;-72
2022/05/24 00:03:45;;;;;;;14.48;6.20;;;;;;;;;;5074363;28;20554;-72
2022/05/24 00:06:13;;;;;;;11.77;5.80;;;;;;;;;;5074119;28;20484;-71
2022/05/24 00:08:39;;;;;;;11.82;6.53;;;;;;;;;;5074068;28;20076;-72
2022/05/24 00:11:05;;;;;;;12.68;6.55;;;;;;;;;;5057478;28;20546;-72
2022/05/24 00:13:32;;;;;;;14.38;6.40;;;;;;;;;;5074127;28;20488;-71
2022/05/24 00:15:58;;;;;;;12.00;7.28;;;;;;;;;;5073933;28;20048;-71
2022/05/24 00:18:25;;;;;;;13.00;7.13;;;;;;;;;;5057318;28;20429;-71
2022/05/24 00:20:57;;;;;;;16.30;7.32;;;13.50;99.90;;;;;;5057110;28;20162;-71
2022/05/24 00:23:24;;;;;;;13.05;7.35;;;;;;;;;;5073678;28;20041;-71
2022/05/24 00:25:52;;;;;;;18.77;7.63;;;;;;;;;;5073814;28;20119;-71
2022/05/24 00:28:19;;;;;;;14.07;7.10;;;;;;;;;;5073716;28;20048;-71
2022/05/24 00:30:46;;;;;;;13.98;7.32;;;;;;;;;;5057095;28;20044;-71
2022/05/24 00:33:12;;;;;;;13.68;7.97;;;;;;;;;;5073858;28;20127;-71
2022/05/24 00:35:38;;;;;;;16.98;7.43;;;;;;;;;;5073469;28;20548;-71
2022/05/24 00:38:06;;;;;;;14.43;7.55;;;;;;;;;;5073444;28;20112;-71
2022/05/24 00:40:51;;;;;;;12.88;6.82;;;;;;;;;;5073006;28;20040;-73
2022/05/24 00:43:17;;;;;;;12.93;6.93;;;;;;;;;;5073304;28;20037;-71
2022/05/24 00:45:46;;;;;;;16.30;6.47;;;;;;;;;;5073355;28;20044;-71
2022/05/24 00:48:27;;;;;;;14.25;7.38;;;13.40;99.90;;;;;;5073171;28;20041;-72
2022/05/24 00:50:53;;;;;;;16.52;7.88;;;;;;;;;;5056611;28;20040;-72
2022/05/24 00:53:22;;;;;;;12.32;7.40;;;;;;;;;;5073102;28;20051;-72
2022/05/24 00:55:57;;;;;;;15.02;7.05;;;13.30;99.90;;;;;;5073112;28;20048;-72
2022/05/24 00:58:46;;;;;;;13.43;7.40;;;13.20;99.90;;;;;;5073093;28;20072;-72
2022/05/24 01:01:31;;;;;;;13.80;7.63;;;13.30;99.90;;;;;;5073156;28;20043;-72
2022/05/24 01:03:57;;;;;;;13.65;7.35;;;;;;;;;;5056620;28;20408;-72
2022/05/24 01:06:23;;;;;;;13.50;6.88;;;;;;;;;;5056287;28;20047;-72
2022/05/24 01:08:49;;;;;;;12.45;7.28;;;;;;;;;;5073151;28;20500;-72
2022/05/24 01:11:17;;;;;;;13.02;7.38;;;;;;;;;;5039982;28;20040;-72
2022/05/24 01:13:43;;;;;;;14.20;7.55;;;;;;;;;;5056245;28;20052;-72
2022/05/24 01:16:10;;;;;;;14.60;8.05;;;13.30;99.90;;;;;;5072760;28;20127;-72
2022/05/24 01:18:36;;;;;;;14.65;7.95;;;;;;;;;;5072609;28;20097;-72
2022/05/24 01:21:08;;;;;;;19.42;8.63;;;;;;;;;;5072619;28;20040;-72
2022/05/24 01:23:38;;;;;;;15.35;8.57;;;;;;;;;;5072555;28;20055;-72
2022/05/24 01:26:16;;;;;;;16.88;8.68;;;13.50;99.90;;;;;;5072588;28;20078;-72
2022/05/24 01:28:45;;;;;;;15.82;9.43;;;13.40;99.90;;;;;;5056231;28;20366;-72
2022/05/24 01:31:11;;;;;;;15.60;9.40;;;;;;;;;;5072380;28;20492;-71
2022/05/24 01:36:23;;;;;;;16.75;10.10;;;;;;;;;;5072300;28;20453;-72
2022/05/24 01:38:50;;;;;;;19.25;11.32;;;;;;;;;;5072648;28;20094;-72
2022/05/24 01:41:28;;;;;;;18.27;10.40;;;13.40;99.90;;;;;;5072375;28;20091;-72
2022/05/24 01:43:55;;;;;;;14.98;10.60;;;13.50;99.90;;;;;;5072295;28;20837;-72
2022/05/24 01:46:34;;;;;;;18.90;10.75;;;13.60;99.90;;;;;;5072342;28;20511;-72
2022/05/24 01:49:03;;;;;;;17.17;11.00;;;;;;;;;;5072402;28;20139;-72
2022/05/24 01:51:31;;;;;;;15.73;10.23;;;;;;;;;;5072210;28;20047;-72
2022/05/24 01:54:00;;;;;;;19.65;11.55;;;13.60;99.90;;;;;;5072223;28;20555;-72
2022/05/24 01:56:47;;;;;;;17.77;11.52;;;13.40;99.90;;;;;;5072431;28;20146;-71
2022/05/24 01:59:16;;;;;;;24.73;13.40;;;13.60;99.90;;;;;;5072218;28;20045;-72
2022/05/24 02:01:57;;;;;;;20.02;11.73;;;13.60;99.90;;;;;;5055968;28;20048;-72
2022/05/24 02:04:26;;;;;;;31.77;13.73;;;13.70;99.90;;;;;;5071967;28;20097;-72
2022/05/24 02:07:05;;;;;;;30.95;13.63;;;13.60;99.90;;;;;;5072281;28;20052;-72
2022/05/24 02:09:31;;;;;;;28.30;14.52;;;;;;;;;;5071908;28;20044;-72
2022/05/24 02:11:59;;;;;;;27.23;14.80;;;;;;;;;;5071905;28;20036;-72
2022/05/24 02:14:32;;;;;;;25.50;14.20;;;13.40;99.90;;;;;;5071981;28;20076;-72
2022/05/24 02:17:04;;;;;;;28.52;15.55;;;;;;;;;;5071963;28;20080;-72
2022/05/24 02:19:31;;;;;;;25.73;15.48;;;;;;;;;;5071909;28;20041;-72
2022/05/24 02:21:59;;;;;;;33.28;17.13;;;;;;;;;;5071659;28;20052;-72
2022/05/24 02:24:26;;;;;;;34.25;17.70;;;13.70;99.90;;;;;;5071665;28;20047;-72
2022/05/24 02:26:52;;;;;;;34.92;18.65;;;;;;;;;;5055273;28;20090;-72
2022/05/24 02:29:20;;;;;;;37.78;20.15;;;13.70;99.90;;;;;;5071734;28;20044;-72
2022/05/24 02:31:46;;;;;;;38.40;20.90;;;;;;;;;;5055107;28;20076;-72
2022/05/24 02:34:13;;;;;;;47.80;23.20;;;;;;;;;;5071625;28;20090;-72
2022/05/24 02:36:39;;;;;;;43.45;21.23;;;;;;;;;;5071595;28;20408;-72
2022/05/24 02:39:05;;;;;;;45.25;24.52;;;;;;;;;;5071721;28;20037;-72
2022/05/24 02:41:32;;;;;;;44.35;24.65;;;;;;;;;;5054838;28;20041;-72
2022/05/24 02:44:03;;;;;;;54.95;25.70;;;;;;;;;;5071497;28;20059;-72
2022/05/24 02:46:31;;;;;;;49.08;25.10;;;13.70;99.90;;;;;;5071475;28;20044;-72
2022/05/24 02:48:57;;;;;;;50.53;25.85;;;;;;;;;;5071690;28;20036;-72
2022/05/24 02:51:23;;;;;;;44.03;24.98;;;;;;;;;;5071494;28;20048;-72
2022/05/24 02:53:49;;;;;;;53.50;26.17;;;;;;;;;;5054878;28;20040;-72
2022/05/24 02:56:16;;;;;;;48.38;27.38;;;;;;;;;;5054827;28;20127;-72
2022/05/24 02:58:42;;;;;;;50.42;27.35;;;;;;;;;;5071614;28;20477;-72
2022/05/24 03:01:19;;;;;;;51.63;27.52;;;13.70;99.90;;;;;;5071787;28;20047;-72
2022/05/24 03:03:46;;;;;;;50.15;28.60;;;13.80;99.90;;;;;;5071699;28;20047;-72
2022/05/24 03:06:12;;;;;;;48.20;28.75;;;;;;;;;;5075306;28;20492;-72
2022/05/24 03:11:23;;;;;;;51.25;29.60;;;;;;;;;;5061320;28;20072;-72
2022/05/24 03:16:34;;;;;;;50.15;26.05;;;;;;;;;;5074981;28;20057;-72
2022/05/24 03:19:00;;;;;;;45.97;28.13;;;;;;;;;;5058541;28;20063;-72
2022/05/24 03:21:26;;;;;;;50.17;24.85;;;;;;;;;;5074824;28;20061;-72
2022/05/24 03:23:52;;;;;;;43.70;25.25;;;;;;;;;;5074888;28;20080;-72
2022/05/24 03:26:19;;;;;;;41.78;25.15;;;;;;;;;;5074835;28;20094;-72
2022/05/24 03:28:47;;;;;;;37.97;22.20;;;;;;;;;;5074769;28;20392;-71
2022/05/24 03:31:14;;;;;;;40.78;22.17;;;;;;;;;;5075049;28;20040;-71
2022/05/24 03:33:40;;;;;;;34.70;21.17;;;;;;;;;;5058374;28;20384;-72
2022/05/24 03:36:06;;;;;;;34.10;19.55;;;;;;;;;;5074624;28;20075;-72
2022/05/24 03:38:33;;;;;;;33.80;18.63;;;;;;;;;;5058052;28;20119;-71
2022/05/24 03:40:59;;;;;;;30.58;17.75;;;;;;;;;;5074786;28;20044;-72
2022/05/24 03:43:26;;;;;;;31.13;18.65;;;;;;;;;;5057835;28;20033;-71
2022/05/24 03:46:10;;;;;;;34.50;18.58;;;13.70;99.90;;;;;;5074713;28;20044;-71
2022/05/24 03:48:36;;;;;;;32.05;17.77;;;;;;;;;;5074268;28;20519;-71
2022/05/24 03:51:04;;;;;;;35.80;17.58;;;;;;;;;;5074357;28;20045;-72
2022/05/24 03:53:30;;;;;;;31.63;17.27;;;;;;;;;;5057979;28;20393;-71
2022/05/24 03:55:56;;;;;;;27.35;15.82;;;;;;;;;;5057640;28;20444;-72
2022/05/24 03:58:23;;;;;;;32.08;15.35;;;13.50;99.90;;;;;;5074542;28;20036;-72
2022/05/24 04:00:49;;;;;;;29.52;14.52;;;;;;;;;;5074688;28;20040;-72
2022/05/24 04:03:15;;;;;;;24.23;13.20;;;;;;;;;;5074551;28;20032;-72
2022/05/24 04:05:42;;;;;;;25.23;12.77;;;;;;;;;;5074378;28;20071;-72
2022/05/24 04:08:08;;;;;;;26.20;13.07;;;13.50;99.90;;;;;;5074226;28;20485;-72
2022/05/24 04:10:35;;;;;;;31.35;11.80;;;;;;;;;;5074318;28;20040;-72
2022/05/24 04:13:01;;;;;;;25.05;11.68;;;;;;;;;;5074035;28;20040;-71
2022/05/24 04:15:27;;;;;;;30.58;11.50;;;;;;;;;;5073265;28;20049;-71
2022/05/24 04:17:54;;;;;;;22.27;12.05;;;;;;;;;;5073670;28;20432;-71
2022/05/24 04:20:21;;;;;;;24.58;10.80;;;;;;;;;;5074151;28;20382;-71
2022/05/24 04:22:47;;;;;;;26.25;10.85;;;;;;;;;;5057002;28;20059;-71
2022/05/24 04:25:14;;;;;;;24.35;10.25;;;13.40;99.90;;;;;;5073737;28;20093;-71
2022/05/24 04:27:40;;;;;;;24.42;10.75;;;;;;;;;;5073666;28;20043;-72
2022/05/24 04:30:07;;;;;;;27.10;11.35;;;;;;;;;;5057238;28;20048;-72
2022/05/24 04:32:33;;;;;;;23.65;11.02;;;;;;;;;;5057028;28;20037;-71
2022/05/24 04:34:59;;;;;;;21.38;9.57;;;;;;;;;;5073788;28;20499;-71
2022/05/24 04:37:25;;;;;;;23.95;10.30;;;;;;;;;;5057593;28;20059;-71
2022/05/24 04:39:51;;;;;;;19.45;10.27;;;14.50;99.90;;;;;;5073792;28;20043;-71
2022/05/24 04:42:21;;;;;;;24.90;10.75;;;;;;;;;;5073295;28;20119;-71
2022/05/24 04:44:49;;;;;;;18.88;9.85;;;13.50;99.90;;;;;;5073407;28;20052;-71
2022/05/24 04:47:15;;;;;;;21.75;10.65;;;13.40;99.90;;;;;;5056787;28;20044;-72
2022/05/24 04:49:47;;;;;;;22.73;10.27;;;13.50;99.90;;;;;;5056735;28;20048;-72
2022/05/24 04:52:14;;;;;;;17.58;9.70;;;;;;;;;;5056915;28;20094;-72
2022/05/24 04:54:42;;;;;;;27.70;11.07;;;13.40;99.90;;;;;;5073378;28;20041;-72
2022/05/24 04:57:08;;;;;;;24.58;10.90;;;;;;;;;;5073173;28;20515;-72
2022/05/24 04:59:35;;;;;;;22.40;10.75;;;;;;;;;;5073024;28;20127;-72
2022/05/24 05:02:01;;;;;;;19.45;11.02;;;;;;;;;;5073239;28;20045;-72
2022/05/24 05:04:27;;;;;;;22.60;11.88;;;;;;;;;;5072952;28;20040;-71
2022/05/24 05:06:53;;;;;;;23.95;12.05;;;;;;;;;;5072989;28;20086;-72
2022/05/24 05:09:20;;;;;;;20.77;12.00;;;13.50;99.90;;;;;;5056162;28;20558;-72
2022/05/24 05:11:46;;;;;;;27.67;12.65;;;;;;;;;;5073190;28;20048;-72
2022/05/24 05:14:12;;;;;;;24.45;12.27;;;;;;;;;;5073077;28;20068;-72
2022/05/24 05:16:39;;;;;;;25.52;13.45;;;;;;;;;;5072705;28;20051;-71
2022/05/24 05:19:06;;;;;;;31.23;13.32;;;13.60;99.90;;;;;;5056147;28;20044;-72
2022/05/24 05:21:33;;;;;;;23.13;13.30;;;;;;;;;;5072569;28;20064;-72
2022/05/24 05:24:00;;;;;;;24.60;13.82;;;;;;;;;;5072910;28;20431;-72
2022/05/24 05:26:26;;;;;;;29.38;13.57;;;;;;;;;;5072530;28;20079;-71
2022/05/24 05:28:52;;;;;;;33.45;13.57;;;;;;;;;;5072125;28;20044;-71
2022/05/24 05:31:26;;;;;;;20.58;13.55;;;;;;;;;;5072463;28;20047;-72
2022/05/24 05:33:58;;;;;;;39.10;15.88;;;13.70;99.90;;;;;;5072468;28;20484;-71
2022/05/24 05:36:24;;;;;;;30.13;15.15;;;;;;;;;;5072493;28;20123;-71
2022/05/24 05:38:50;;;;;;;28.98;15.27;;;;;;;;;;5072495;28;20495;-77
2022/05/24 05:41:19;;;;;;;33.28;16.90;;;13.80;99.90;;;;;;5055878;28;20039;-76
2022/05/24 05:43:46;;;;;;;36.53;17.15;;;;;;;;;;5072492;28;20032;-76
2022/05/24 05:46:13;;;;;;;31.67;16.33;;;13.90;99.90;;;;;;5072258;28;20161;-76
2022/05/24 05:48:39;;;;;;;28.67;16.30;;;14.00;99.90;;;;;;5055501;28;20123;-76
2022/05/24 05:51:07;;;;;;;31.08;16.85;;;14.10;99.90;;;;;;5072877;28;20513;-76
2022/05/24 05:53:33;;;;;;;32.05;16.92;;;;;;;;;;5072259;28;20045;-76
2022/05/24 05:56:00;;;;;;;34.95;17.50;;;;;;;;;;5072180;28;20040;-76
2022/05/24 05:58:26;;;;;;;31.27;17.80;;;;;;;;;;5072066;28;20052;-77
2022/05/24 06:00:52;;;;;;;32.30;16.67;;;14.70;99.90;;;;;;5072170;28;20037;-76
2022/05/24 06:03:19;;;;;;;37.40;17.38;;;13.90;99.90;;;;;;5072340;28;20048;-77
2022/05/24 06:05:47;;;;;;;41.60;17.92;;;14.00;99.90;;;;;;5072323;28;20040;-76
2022/05/24 06:08:13;;;;;;;35.63;17.80;;;;;;;;;;5055333;28;20048;-77
2022/05/24 06:10:39;;;;;;;32.63;17.83;;;;;;;;;;5072135;28;20044;-77
2022/05/24 06:13:06;;;;;;;31.42;14.60;;;14.00;99.90;;;;;;5071793;28;20480;-76
2022/05/24 06:15:32;;;;;;;33.83;13.65;;;;;;;;;;5073160;28;20447;-76
2022/05/24 06:17:59;;;;;;;25.98;11.02;;;;;;;;;;5071624;28;20480;-76
2022/05/24 06:20:27;;;;;;;28.88;11.38;;;;;;;;;;5072013;28;20066;-77
2022/05/24 06:22:54;;;;;;;24.45;10.95;;;;;;;;;;5071742;28;20485;-77
2022/05/24 06:25:21;;;;;;;26.83;10.75;;;;;;;;;;5054950;28;20044;-77
2022/05/24 06:27:49;;;;;;;26.23;9.73;;;14.10;99.90;;;;;;5071960;28;20131;-77
2022/05/24 06:30:15;;;;;;;18.48;9.02;;;;;;;;;;5071775;28;20044;-77
2022/05/24 06:32:41;;;;;;;20.67;9.05;;;;;;;;;;5071626;28;20048;-76
2022/05/24 06:35:08;;;;;;;18.92;8.32;;;;;;;;;;5054824;28;20040;-76
2022/05/24 06:37:34;;;;;;;22.08;7.80;;;;;;;;;;5071607;28;20400;-76
2022/05/24 06:40:00;;;;;;;21.27;8.02;;;;;;;;;;5040894;28;20041;-76
2022/05/24 06:42:26;;;;;;;18.83;7.90;;;;;;;;;;5075969;28;20039;-77
2022/05/24 06:44:52;;;;;;;19.95;7.15;;;;;;;;;;5075688;28;20044;-77
2022/05/24 06:47:18;;;;;;;17.40;7.55;;;;;;;;;;5075650;28;20123;-77
2022/05/24 06:49:44;;;;;;;15.27;6.95;;;;;;;;;;5075507;28;20037;-77
2022/05/24 06:52:11;;;;;;;21.77;7.28;;;;;;;;;;5075697;28;20071;-77
2022/05/24 06:54:37;;;;;;;21.15;7.03;;;;;;;;;;5058860;28;20082;-77
2022/05/24 06:57:03;;;;;;;16.63;7.32;;;;;;;;;;5058797;28;20467;-77
2022/05/24 07:02:26;;;;;;;26.25;7.45;;;;;;;;;;5075389;28;20036;-77
2022/05/24 07:05:00;;;;;;;25.58;7.40;;;14.20;99.90;;;;;;5075242;28;20040;-77
2022/05/24 07:07:27;;;;;;;25.23;8.07;;;;;;;;;;5075297;28;20123;-76
2022/05/24 07:09:53;;;;;;;21.00;8.50;;;;;;;;;;5075213;28;20052;-76
2022/05/24 07:12:23;;;;;;;24.55;8.52;;;14.30;99.90;;;;;;5075134;28;20036;-76
2022/05/24 07:14:49;;;;;;;23.83;8.63;;;;;;;;;;5075113;28;20036;-77
2022/05/24 07:17:17;;;;;;;21.20;9.13;;;;;;;;;;5074862;28;20041;-76
2022/05/24 07:19:43;;;;;;;22.00;8.98;;;;;;;;;;5058480;28;20044;-76
2022/05/24 07:22:09;;;;;;;20.80;8.85;;;;;;;;;;5075422;28;20457;-76
2022/05/24 07:24:35;;;;;;;21.10;8.45;;;;;;;;;;5075008;28;20085;-76
2022/05/24 07:27:04;;;;;;;17.90;8.70;;;;;;;;;;5075308;28;20393;-76
2022/05/24 07:29:36;;;;;;;22.42;8.85;;;14.40;99.90;;;;;;5058239;28;20480;-76
2022/05/24 07:32:04;;;;;;;24.02;9.15;;;14.30;99.90;;;;;;5074735;28;20040;-76
2022/05/24 07:34:30;;;;;;;20.38;9.95;;;;;;;;;;5074755;28;20037;-77
2022/05/24 07:36:57;;;;;;;22.90;8.57;;;;;;;;;;5074735;28;20037;-77
2022/05/24 07:39:23;;;;;;;18.85;9.20;;;;;;;;;;5074674;28;20040;-77
2022/05/24 07:47:19;;;;;;;15.15;7.63;;;;;;;;;;5074758;28;20079;-76
2022/05/24 07:49:45;;;;;;;18.35;8.15;;;;;;;;;;5074322;28;20412;-76
2022/05/24 07:52:11;;;;;;;17.30;7.22;;;;;;;;;;5057843;28;20472;-76
2022/05/24 07:54:37;;;;;;;16.58;7.30;;;;;;;;;;5074117;28;20080;-76
2022/05/24 07:57:08;;;;;;;12.85;7.13;;;15.40;99.90;;;;;;5074249;28;20675;-76
2022/05/24 07:59:35;;;;;;;17.00;6.10;;;14.60;99.90;;;;;;5074445;28;20044;-76
2022/05/24 08:02:01;;;;;;;12.02;6.40;;;;;;;;;;5074499;28;20037;-76
2022/05/24 08:04:27;;;;;;;14.57;6.32;;;;;;;;;;5074148;28;20040;-76
2022/05/24 08:06:55;;;;;;;11.90;5.60;;;;;;;;;;5074168;28;20477;-75
2022/05/24 08:09:21;;;;;;;14.63;6.95;;;;;;;;;;5074104;28;20036;-76
2022/05/24 08:11:47;;;;;;;11.82;6.47;;;;;;;;;;5074076;28;20035;-76
2022/05/24 08:14:13;;;;;;;15.65;6.68;;;;;;;;;;5057413;28;20033;-76
2022/05/24 08:16:39;;;;;;;11.18;6.93;;;;;;;;;;5073919;28;20101;-76
2022/05/24 08:19:08;;;;;;;13.48;6.50;;;;;;;;;;5074066;28;20141;-76
2022/05/24 08:21:34;;;;;;;12.77;6.80;;;;;;;;;;5074026;28;20178;-76
2022/05/24 08:24:01;;;;;;;13.07;6.55;;;;;;;;;;5074142;28;20075;-76
2022/05/24 08:26:27;;;;;;;12.30;7.25;;;;;;;;;;5057393;28;20044;-77
2022/05/24 08:28:53;;;;;;;17.55;6.85;;;;;;;;;;5057556;28;20427;-77
2022/05/24 08:31:20;;;;;;;19.25;6.55;;;;;;;;;;5073757;28;20040;-77
2022/05/24 08:33:47;;;;;;;18.67;6.45;;;14.60;99.90;;;;;;5073816;28;20048;-75
2022/05/24 08:36:14;;;;;;;18.70;7.13;;;14.40;99.90;;;;;;5073682;28;20032;-76
2022/05/24 08:38:41;;;;;;;22.02;7.95;;;;;;;;;;5073689;28;20048;-75
2022/05/24 08:41:17;;;;;;;14.80;7.75;;;14.30;99.90;;;;;;5073826;28;20131;-75
2022/05/24 08:48:22;;;;;;;20.92;9.70;;;;;;;;;;5073614;28;20072;-75
2022/05/24 08:49:35;;;;;;;19.98;8.48;;;;;;;;;;5073318;28;20135;-75
2022/05/24 08:52:04;;;;;;;15.63;8.73;;;13.90;99.90;;;;;;5073331;28;20045;-75
2022/05/24 08:54:44;;;;;;;12.80;7.88;;;;;;;;;;5073202;28;20128;-75
2022/05/24 08:57:31;;;;;;;21.55;8.63;;;13.80;99.90;;;;;;5073236;28;20037;-75
2022/05/24 08:59:59;;;;;;;19.23;8.88;;;;;;;;;;5062608;28;20041;-75
2022/05/24 09:02:25;;;;;;;21.73;10.02;;;;;;;;;;5072575;28;20040;-75
2022/05/24 09:04:51;;;;;;;19.25;9.40;;;;;;;;;;5056394;28;20051;-76
2022/05/24 09:07:38;;;;;;;19.45;10.73;;;13.90;99.90;;;;;;5073111;28;20131;-76
2022/05/24 09:10:09;;;;;;;22.27;10.07;;;;;;;;;;5072994;28;20052;-75
2022/05/24 09:13:07;;;;;;;22.20;8.85;;;13.90;99.90;;;;;;5072962;28;20090;-75
2022/05/24 09:15:58;;;;;;;17.20;9.23;;;13.80;99.90;;;;;;5052414;28;20052;-75
2022/05/24 09:18:54;;;;;;;17.08;9.35;;;14.10;99.90;;;;;;5072506;28;20051;-75
2022/05/24 09:21:26;;;;;;;20.90;9.02;;;14.20;99.90;;;;;;5060489;28;20393;-75
2022/05/24 09:24:24;;;;;;;16.75;9.85;;;14.30;99.90;;;;;;5056108;28;20097;-75
2022/05/24 09:27:05;;;;;;;17.38;9.65;;;;;;;;;;5066955;28;20045;-75
2022/05/24 09:29:32;;;;;;;12.82;8.60;;;;;;;;;;5072618;28;20370;-76
2022/05/24 09:31:59;;;;;;;16.45;8.15;;;;;;;;;;5072752;28;20032;-76
2022/05/24 09:34:31;;;;;;;14.38;8.20;;;;;;;;;;5072269;28;20521;-76
2022/05/24 09:37:01;;;;;;;16.98;8.73;;;;;;;;;;5072651;28;20412;-76
2022/05/24 09:39:30;;;;;;;14.90;8.50;;;;;;;;;;5072504;28;20040;-76
2022/05/24 09:41:56;;;;;;;15.93;8.48;;;;;;;;;;5072236;28;20400;-77
2022/05/24 09:44:22;;;;;;;14.50;6.55;;;;;;;;;;5055669;28;20097;-76
2022/05/24 09:46:51;;;;;;;15.93;6.47;;;;;;;;;;5072507;28;20044;-76
2022/05/24 09:49:32;;;;;;;11.82;6.38;;;15.40;99.90;;;;;;5055953;28;20051;-76
2022/05/24 09:52:11;;;;;;;11.82;6.43;;;15.50;99.90;;;;;;5072224;28;20055;-76
2022/05/24 09:54:51;;;;;;;12.73;5.88;;;15.70;99.90;;;;;;5072133;28;20028;-76
2022/05/24 09:57:26;;;;;;;9.70;4.63;;;15.30;99.90;;;;;;5055442;28;20037;-76
2022/05/24 10:00:06;;;;;;;10.95;4.80;;;;;;;;;;5055386;28;20033;-77
2022/05/24 10:02:33;;;;;;;10.18;3.58;;;14.70;99.90;;;;;;5072285;28;20439;-76
2022/05/24 10:05:01;;;;;;;7.25;2.90;;;;;;;;;;5072017;28;20052;-75
2022/05/24 10:07:35;;;;;;;7.22;2.90;;;14.80;99.90;;;;;;5072217;28;20396;-76
2022/05/24 10:10:06;;;;;;;8.07;4.38;;;14.80;99.90;;;;;;5055176;28;20124;-76
2022/05/24 10:12:53;;;;;;;9.07;4.72;;;14.80;99.90;;;;;;5072222;28;20045;-76
2022/05/24 10:15:52;;;;;;;10.32;5.20;;;;;;;;;;5054280;28;20041;-76
2022/05/24 10:18:31;;;;;;;13.30;6.05;;;;;;;;;;5049565;28;20481;-76
2022/05/24 10:21:06;;;;;;;16.00;6.68;;;15.40;99.90;;;;;;5071907;28;20047;-77
2022/05/24 10:23:52;;;;;;;17.42;7.45;;;15.20;99.90;;;;;;5071835;28;20063;-76
2022/05/24 10:26:41;;;;;;;13.85;6.85;;;;;;;;;;5055253;28;20078;-76
2022/05/24 10:29:07;;;;;;;18.35;7.78;;;;;;;;;;5071826;28;20052;-76
2022/05/24 10:31:33;;;;;;;16.50;7.72;;;;;;;;;;5071834;28;20048;-76
2022/05/24 10:39:53;;;;;;;10.13;3.90;;;;;;;;;;5071725;28;20048;-76
2022/05/24 10:42:43;;;;;;;6.45;2.85;;;14.80;99.90;;;;;;5055235;28;20131;-76
2022/05/24 10:45:16;;;;;;;2.45;1.70;;;14.70;99.90;;;;;;5072154;28;20050;-76
2022/05/24 10:48:15;;;;;;;5.43;2.10;;;;;;;;;;5071606;28;20041;-76
2022/05/24 10:50:44;;;;;;;6.95;1.80;;;;;;;;;;5049913;28;20049;-76
2022/05/24 10:53:15;;;;;;;4.85;1.98;;;15.10;99.90;;;;;;5072019;28;20071;-76
2022/05/24 10:55:43;;;;;;;6.85;2.95;;;;;;;;;;5071698;28;20396;-76
2022/05/24 10:58:13;;;;;;;7.43;2.50;;;15.30;99.90;;;;;;5071500;28;20048;-76
2022/05/24 11:00:57;;;;;;;8.23;3.30;;;15.60;99.90;;;;;;5071591;28;20040;-76
2022/05/24 11:03:33;;;;;;;5.97;2.55;;;15.50;99.90;;;;;;5071664;28;20476;-76
2022/05/24 11:06:34;;;;;;;11.25;2.88;;;15.60;99.90;;;;;;5055090;28;20388;-76
2022/05/24 11:09:22;;;;;;;5.63;3.13;;;15.60;99.90;;;;;;5071478;28;20555;-76
2022/05/24 11:12:04;;;;;;;10.43;2.65;;;15.50;99.90;;;;;;5071471;28;20044;-76
2022/05/24 11:14:47;;;;;;;8.30;2.90;;;15.10;99.90;;;;;;5071762;28;20392;-76
2022/05/24 11:17:13;;;;;;;6.32;1.90;;;14.80;99.90;;;;;;5071602;28;20095;-76
2022/05/24 11:19:45;;;;;;;4.22;2.13;;;14.60;99.90;;;;;;5071349;28;20040;-76
2022/05/24 11:22:27;;;;;;;8.25;2.60;;;;;;;;;;5071456;28;20044;-76
2022/05/24 11:24:56;;;;;;;10.27;3.33;;;;;;;;;;5071386;28;20538;-77
2022/05/24 11:27:51;;;;;;;10.13;3.20;;;14.70;99.90;;;;;;5075288;28;20045;-76
2022/05/24 11:30:25;;;;;;;8.32;3.17;;;14.70;99.90;;;;;;5074431;28;20467;-76
2022/05/24 11:32:53;;;;;;;15.05;3.30;;;;;;;;;;5058203;28;20102;-77
2022/05/24 11:35:19;;;;;;;7.85;4.05;;;;;;;;;;5058057;28;20047;-76
2022/05/24 11:37:51;;;;;;;10.35;3.00;;;15.10;99.90;;;;;;5074772;28;20557;-76
2022/05/24 11:40:39;;;;;;;11.40;3.30;;;15.30;99.90;;;;;;5058417;28;20040;-76
2022/05/24 11:43:28;;;;;;;6.05;2.33;;;;;;;;;;5074990;28;20824;-76
2022/05/24 11:46:02;;;;;;;5.97;2.25;;;15.60;99.90;;;;;;5074426;28;20048;-77
2022/05/24 11:48:43;;;;;;;8.55;3.10;;;15.40;99.20;;;;;;5074776;28;20568;-77
2022/05/24 11:51:30;;;;;;;16.88;2.60;;;15.50;99.10;;;;;;5075101;28;20072;-76
2022/05/24 11:53:56;;;;;;;9.73;3.13;;;;;;;;;;5074453;28;20041;-76
2022/05/24 11:56:24;;;;;;;10.13;3.85;;;15.60;99.90;;;;;;5074269;28;20511;-76
2022/05/24 11:58:55;;;;;;;12.95;3.75;;;;;;;;;;5057643;28;20036;-76
2022/05/24 12:01:25;;;;;;;10.52;3.25;;;;;;;;;;5074692;28;20047;-77
2022/05/24 12:07:54;;;;;;;9.52;3.42;;;15.40;99.90;;;;;;5074069;28;20047;-77
2022/05/24 12:10:26;;;;;;;9.93;2.65;;;;;;;;;;5074176;28;20044;-75
2022/05/24 12:12:57;;;;;;;8.50;2.40;;;15.40;99.90;;;;;;5057472;28;20044;-76
2022/05/24 12:15:24;;;;;;;8.10;2.20;;;;;;;;;;5073973;28;20550;-76
2022/05/24 12:18:13;;;;;;;9.50;1.92;;;;;;;;;;5073840;28;20135;-77
2022/05/24 12:20:39;;;;;;;3.78;1.67;;;;;;;;;;5074075;28;20497;-76
2022/05/24 12:23:13;;;;;;;9.73;2.17;;;14.80;99.90;;;;;;5073645;28;20105;-76
2022/05/24 12:25:58;;;;;;;6.90;2.38;;;;;;;;;;5073911;28;20161;-77
2022/05/24 12:28:36;;;;;;;7.53;1.98;;;;;;;;;;5057083;28;20047;-76
2022/05/24 12:31:22;;;;;;;6.22;1.90;;;;;;;;;;5073687;28;20066;-76
2022/05/24 12:33:53;;;;;;;9.50;2.38;;;16.20;98.60;;;;;;5046530;28;20052;-77
2022/05/24 12:36:41;;;;;;;10.15;2.17;;;15.40;99.90;;;;;;5073194;28;20051;-76
2022/05/24 12:39:06;;;;;;;7.85;2.45;;;17.00;99.90;;;;;;5057379;28;20044;-77
2022/05/24 12:41:37;;;;;;;6.50;2.17;;;16.20;97.10;;;;;;5073958;28;20416;-77
2022/05/24 12:44:03;;;;;;;5.43;1.85;;;;;;;;;;5056978;28;20037;-77
2022/05/24 12:46:35;;;;;;;5.75;2.00;;;16.60;96.90;;;;;;5073348;28;20102;-76
2022/05/24 12:49:04;;;;;;;9.75;2.60;;;;;;;;;;5073394;28;20064;-76
2022/05/24 12:51:30;;;;;;;13.35;2.85;;;;;;;;;;5073619;28;20080;-76
2022/05/24 12:54:34;;;;;;;7.18;2.63;;;16.60;96.20;;;;;;5073381;28;20040;-77
2022/05/24 12:57:12;;;;;;;7.95;2.58;;;16.30;99.80;;;;;;5056216;28;20063;-76
2022/05/24 12:59:40;;;;;;;9.63;2.40;;;16.70;96.30;;;;;;5073346;28;20085;-77
2022/05/24 13:02:28;;;;;;;10.27;2.25;;;16.90;96.00;;;;;;5073584;28;20473;-76
2022/05/24 13:05:20;;;;;;;7.20;2.67;;;16.90;95.40;;;;;;5073200;28;20044;-76
2022/05/24 13:07:47;;;;;;;6.65;2.47;;;;;;;;;;5056411;28;20128;-76
2022/05/24 13:10:19;;;;;;;9.32;2.70;;;17.60;98.80;;;;;;5073033;28;20036;-77
2022/05/24 13:12:46;;;;;;;6.97;2.00;;;16.90;94.90;;;;;;5072997;28;20045;-76
2022/05/24 13:15:16;;;;;;;10.70;2.05;;;16.60;94.80;;;;;;5073093;28;20041;-76
2022/05/24 13:17:44;;;;;;;10.75;3.17;;;;;;;;;;5072747;28;20040;-75
2022/05/24 13:20:32;;;;;;;5.28;2.47;;;16.50;96.00;;;;;;5072557;28;20036;-76
2022/05/24 13:23:04;;;;;;;8.80;2.70;;;16.40;95.70;;;;;;5072535;28;20416;-76
2022/05/24 13:25:30;;;;;;;;;;;;;;;;;;5073144;28;20055;-77
2022/05/24 13:27:58;;;;;;;5.32;2.90;;;;;;;;;;5072785;28;19917;-76
2022/05/24 13:33:34;;;;;;;5.47;2.40;;;16.40;95.50;;;;;;5072486;28;20044;-77
2022/05/24 13:36:03;;;;;;;8.48;2.50;;;16.60;95.30;;;;;;5072572;28;20072;-77
2022/05/24 13:38:29;;;;;;;9.68;2.55;;;;;;;;;;5072719;28;20037;-77
2022/05/24 13:40:58;;;;;;;9.75;3.50;;;16.60;95.70;;;;;;5039671;28;20103;-77
2022/05/24 13:43:40;;;;;;;6.07;2.20;;;16.50;94.80;;;;;;5056062;28;20049;-77
2022/05/24 13:46:21;;;;;;;9.68;2.80;;;16.40;96.10;;;;;;5072302;28;20051;-77
2022/05/24 13:48:55;;;;;;;9.37;3.40;;;;;;;;;;5072364;28;20040;-77
2022/05/24 13:51:27;;;;;;;5.40;2.70;;;16.70;95.80;;;;;;5072251;28;20286;-77
2022/05/24 13:53:54;;;;;;;6.65;2.50;;;16.60;95.10;;;;;;5055627;28;20182;-77
2022/05/24 13:56:34;;;;;;;9.02;2.40;;;16.50;95.30;;;;;;5072152;28;20055;-77
2022/05/24 13:59:20;;;;;;;6.47;2.70;;;16.20;95.30;;;;;;5055563;28;20040;-77
2022/05/24 14:01:52;;;;;;;7.35;2.85;;;16.50;99.00;;;;;;5072485;28;20052;-77
2022/05/24 14:04:26;;;;;;;12.80;4.45;;;16.30;99.00;;;;;;5072094;28;20045;-77
2022/05/24 14:06:56;;;;;;;7.68;4.70;;;16.00;95.90;;;;;;5072153;28;20047;-77
2022/05/24 14:09:23;;;;;;;7.38;3.70;;;;;;;;;;5072003;28;20047;-77
2022/05/24 14:11:56;;;;;;;16.80;5.05;;;16.30;94.80;;;;;;5072173;28;20044;-77
2022/05/24 14:14:23;;;;;;;13.30;5.65;;;16.40;95.00;;;;;;5072178;28;20044;-77
2022/05/24 14:16:51;;;;;;;11.27;4.93;;;16.30;95.40;;;;;;5071833;28;20052;-77
2022/05/24 14:19:17;;;;;;;14.45;4.60;;;;;;;;;;5071828;28;20076;-77
2022/05/24 14:21:43;;;;;;;10.00;4.20;;;;;;;;;;5055008;28;20037;-76
2022/05/24 14:24:16;;;;;;;6.22;3.30;;;16.80;95.40;;;;;;5054999;28;20477;-77
2022/05/24 14:26:45;;;;;;;9.10;3.50;;;16.90;95.00;;;;;;5072066;28;20040;-76
2022/05/24 14:29:11;;;;;;;10.93;3.45;;;;;;;;;;5055292;28;20040;-77
2022/05/24 14:31:37;;;;;;;8.27;3.10;;;;;;;;;;5072170;28;20110;-77
2022/05/24 14:34:04;;;;;;;7.82;3.50;;;;;;;;;;5072026;28;20392;-77